Terminal Aerodrome Forecast
Issued by NWS

Home | Current Version | Previous Version | Text Only | Print | Product List | Glossary On
Versions: 1 2 3 4 5 6 7 8 9 10 11 12 13 14 15 16 17 18 19 20 21 22
000
FTAK31 PANC 211737
TAFAIL
TAF
PAIL 211737Z 2118/2218 34005KT 3SM BR OVC004
      TEMPO 2119/2121 1SM -SN BR
     FM212100 25006KT 2SM -SN BR BKN005 OVC010
     FM220100 28007KT 6SM BR SCT010 OVC030
     FM220600 29011KT P6SM SCT040=

USA.gov is the U.S. government's official web portal to all federal, state and local government web resources and services.